createdAt,value
2023-05-17T00:00:52.244Z,99.90
2023-05-17T00:03:19.981Z,99.90
2023-05-17T00:05:47.604Z,99.90
2023-05-17T00:08:15.181Z,99.90
2023-05-17T00:10:43.548Z,99.90
2023-05-17T00:13:11.246Z,99.90
2023-05-17T00:15:38.900Z,99.90
2023-05-17T00:18:06.617Z,99.90
2023-05-17T00:20:34.974Z,99.90
2023-05-17T00:23:03.499Z,99.90
2023-05-17T00:25:31.450Z,99.90
2023-05-17T00:27:59.289Z,99.90
2023-05-17T00:30:26.941Z,99.90
2023-05-17T00:32:54.892Z,99.90
2023-05-17T00:35:22.679Z,99.90
2023-05-17T00:37:50.222Z,99.90
2023-05-17T00:40:18.394Z,99.90
2023-05-17T00:42:46.017Z,99.90
2023-05-17T00:45:13.796Z,99.90
2023-05-17T00:47:41.632Z,99.90
2023-05-17T00:50:09.893Z,99.90
2023-05-17T00:52:37.795Z,99.90
2023-05-17T00:55:06.430Z,99.90
2023-05-17T00:57:34.070Z,99.90
2023-05-17T01:00:02.112Z,99.90
2023-05-17T01:02:30.082Z,99.90
2023-05-17T01:04:58.631Z,99.90
2023-05-17T01:07:26.441Z,99.90
2023-05-17T01:09:54.532Z,99.90
2023-05-17T01:12:43.475Z,99.90
2023-05-17T01:15:17.087Z,99.90
2023-05-17T01:18:03.064Z,99.90
2023-05-17T01:20:38.807Z,99.90
2023-05-17T01:23:38.504Z,99.90
2023-05-17T01:26:41.534Z,99.90
2023-05-17T01:29:10.160Z,99.90
2023-05-17T01:31:39.002Z,99.90
2023-05-17T01:34:09.953Z,99.90
2023-05-17T01:36:37.553Z,99.90
2023-05-17T01:39:05.106Z,99.90
2023-05-17T01:41:44.685Z,99.90
2023-05-17T01:44:27.755Z,99.90
2023-05-17T01:47:02.614Z,99.90
2023-05-17T01:49:31.193Z,99.90
2023-05-17T01:52:16.848Z,99.90
2023-05-17T01:54:51.837Z,99.90
2023-05-17T01:57:23.413Z,99.90
2023-05-17T01:59:53.270Z,99.90
2023-05-17T02:02:22.799Z,99.90
2023-05-17T02:04:51.767Z,99.90
2023-05-17T02:07:19.357Z,99.90
2023-05-17T02:09:47.001Z,99.90
2023-05-17T02:12:14.578Z,99.90
2023-05-17T02:14:42.403Z,99.90
2023-05-17T02:17:10.271Z,99.90
2023-05-17T02:19:38.039Z,99.90
2023-05-17T02:22:05.701Z,99.90
2023-05-17T02:24:33.525Z,99.90
2023-05-17T02:27:01.413Z,99.90
2023-05-17T02:29:29.057Z,99.90
2023-05-17T02:31:56.861Z,99.90
2023-05-17T02:34:24.559Z,99.90
2023-05-17T02:36:52.740Z,99.90
2023-05-17T02:39:21.406Z,99.90
2023-05-17T02:41:49.006Z,99.90
2023-05-17T02:44:16.525Z,99.90
2023-05-17T02:46:44.283Z,99.90
2023-05-17T02:49:11.806Z,99.90
2023-05-17T02:51:39.329Z,99.90
2023-05-17T02:54:06.875Z,99.90
2023-05-17T02:56:34.517Z,99.90
2023-05-17T02:59:02.146Z,99.90
2023-05-17T03:01:29.853Z,99.90
2023-05-17T03:03:57.465Z,99.90
2023-05-17T03:06:25.206Z,99.90
2023-05-17T03:08:52.998Z,99.90
2023-05-17T03:11:21.080Z,99.90
2023-05-17T03:13:51.792Z,99.90
2023-05-17T03:16:19.568Z,99.90
2023-05-17T03:18:47.248Z,99.90
2023-05-17T03:21:14.933Z,99.90
2023-05-17T03:23:42.521Z,99.90
2023-05-17T03:26:10.016Z,99.90
2023-05-17T03:28:37.792Z,99.90
2023-05-17T03:31:05.720Z,99.90
2023-05-17T03:33:33.557Z,99.90
2023-05-17T03:36:01.160Z,99.90
2023-05-17T03:38:28.788Z,99.90
2023-05-17T03:40:56.356Z,99.90
2023-05-17T03:43:23.941Z,99.90
2023-05-17T03:45:51.538Z,99.90
2023-05-17T03:48:19.490Z,99.90
2023-05-17T03:50:47.176Z,99.90
2023-05-17T03:53:14.735Z,99.90
2023-05-17T03:55:42.289Z,99.90
2023-05-17T03:58:09.806Z,99.90
2023-05-17T04:00:37.429Z,99.90
2023-05-17T04:03:05.060Z,99.90
2023-05-17T04:05:33.061Z,99.90
2023-05-17T04:08:00.995Z,99.90
2023-05-17T04:10:28.555Z,99.90
2023-05-17T04:12:56.064Z,99.90
2023-05-17T04:15:23.797Z,99.90
2023-05-17T04:17:51.605Z,99.90
2023-05-17T04:20:19.209Z,99.90
2023-05-17T04:22:46.927Z,99.90
2023-05-17T04:25:15.082Z,99.90
2023-05-17T04:27:42.992Z,99.90
2023-05-17T04:30:11.034Z,99.90
2023-05-17T04:32:38.639Z,99.90
2023-05-17T04:35:06.584Z,99.90
2023-05-17T04:37:34.697Z,99.90
2023-05-17T04:40:08.060Z,99.90
2023-05-17T04:42:35.880Z,99.90
2023-05-17T04:45:03.845Z,99.90
2023-05-17T04:47:31.577Z,99.90
2023-05-17T04:49:59.242Z,99.90
2023-05-17T04:52:27.147Z,99.90
2023-05-17T04:54:54.754Z,99.90
2023-05-17T04:57:22.539Z,99.90
2023-05-17T04:59:50.124Z,99.90
2023-05-17T05:02:17.638Z,99.90
2023-05-17T05:04:45.197Z,99.90
2023-05-17T05:07:13.009Z,99.90
2023-05-17T05:09:40.585Z,99.90
2023-05-17T05:12:08.679Z,99.90
2023-05-17T05:14:36.258Z,99.90
2023-05-17T05:17:03.867Z,99.90
2023-05-17T05:19:31.878Z,99.90
2023-05-17T05:22:00.891Z,99.90
2023-05-17T05:24:28.422Z,99.90
2023-05-17T05:26:56.064Z,99.90
2023-05-17T05:29:23.647Z,99.90
2023-05-17T05:31:51.210Z,99.90
2023-05-17T05:34:18.690Z,99.90
2023-05-17T05:36:46.389Z,99.90
2023-05-17T05:39:14.127Z,99.90
2023-05-17T05:41:42.372Z,99.90
2023-05-17T05:44:09.938Z,99.90
2023-05-17T05:46:37.465Z,99.90
2023-05-17T05:49:05.074Z,99.90
2023-05-17T05:51:33.045Z,99.90
2023-05-17T05:54:00.876Z,99.90
2023-05-17T05:56:28.515Z,99.90
2023-05-17T05:58:57.772Z,99.90
2023-05-17T06:01:25.512Z,99.90
2023-05-17T06:03:53.129Z,99.90
2023-05-17T06:06:20.996Z,99.90
2023-05-17T06:08:48.631Z,99.90
2023-05-17T06:11:16.178Z,99.90
2023-05-17T06:13:43.735Z,99.90
2023-05-17T06:16:11.509Z,99.90
2023-05-17T06:18:39.415Z,99.90
2023-05-17T06:21:07.123Z,99.90
2023-05-17T06:23:34.715Z,99.90
2023-05-17T06:26:02.362Z,99.90
2023-05-17T06:28:30.147Z,99.90
2023-05-17T06:30:57.657Z,99.90
2023-05-17T06:33:25.372Z,99.90
2023-05-17T06:35:56.273Z,99.90
2023-05-17T06:38:25.567Z,99.90
2023-05-17T06:40:57.567Z,99.90
2023-05-17T06:43:25.312Z,99.90
2023-05-17T06:45:52.985Z,99.90
2023-05-17T06:48:20.848Z,99.90
2023-05-17T06:50:48.595Z,99.90
2023-05-17T06:53:16.281Z,99.90
2023-05-17T06:55:44.008Z,99.90
2023-05-17T06:58:11.722Z,99.90
2023-05-17T07:00:39.430Z,99.90
2023-05-17T07:03:09.870Z,99.90
2023-05-17T07:05:37.652Z,99.90
2023-05-17T07:08:05.865Z,99.90
2023-05-17T07:10:33.472Z,99.90
2023-05-17T07:13:00.978Z,99.90
2023-05-17T07:15:28.872Z,99.90
2023-05-17T07:17:56.753Z,98.80
2023-05-17T07:20:24.403Z,99.10
2023-05-17T07:22:51.930Z,99.90
2023-05-17T07:25:21.644Z,99.90
2023-05-17T07:27:49.383Z,99.90
2023-05-17T07:30:16.916Z,99.90
2023-05-17T07:32:44.725Z,99.90
2023-05-17T07:35:12.487Z,99.90
2023-05-17T07:37:40.012Z,99.90
2023-05-17T07:40:09.131Z,99.90
2023-05-17T07:42:36.746Z,99.90
2023-05-17T07:45:04.582Z,99.90
2023-05-17T07:47:32.332Z,99.90
2023-05-17T07:50:00.090Z,99.90
2023-05-17T07:52:27.644Z,99.90
2023-05-17T07:54:55.156Z,99.90
2023-05-17T07:57:22.752Z,99.90
2023-05-17T07:59:50.332Z,99.90
2023-05-17T08:02:19.845Z,99.90
2023-05-17T08:04:47.451Z,99.90
2023-05-17T08:07:14.996Z,99.90
2023-05-17T08:09:44.674Z,99.90
2023-05-17T08:12:12.355Z,99.90
2023-05-17T08:14:40.460Z,99.90
2023-05-17T08:17:08.097Z,99.90
2023-05-17T08:19:36.290Z,99.70
2023-05-17T08:22:04.023Z,98.60
2023-05-17T08:24:31.542Z,99.90
2023-05-17T08:26:59.271Z,99.90
2023-05-17T08:29:26.952Z,99.90
2023-05-17T08:31:55.064Z,99.90
2023-05-17T08:34:24.672Z,99.90
2023-05-17T08:36:53.776Z,99.90
2023-05-17T08:39:21.645Z,99.90
2023-05-17T08:41:49.257Z,99.90
2023-05-17T08:44:17.344Z,99.60
2023-05-17T08:46:52.544Z,97.00
2023-05-17T08:49:25.994Z,91.40
2023-05-17T08:51:59.446Z,87.80
2023-05-17T08:54:27.990Z,81.60
2023-05-17T08:56:59.506Z,81.20
2023-05-17T08:59:33.984Z,80.40
2023-05-17T09:02:02.602Z,83.80
2023-05-17T09:04:33.373Z,84.90
2023-05-17T09:07:01.027Z,86.20
2023-05-17T09:09:28.946Z,86.30
2023-05-17T09:11:56.642Z,84.10
2023-05-17T09:14:24.216Z,81.70
2023-05-17T09:17:00.082Z,83.70
2023-05-17T09:19:28.246Z,83.60
2023-05-17T09:21:56.229Z,85.70
2023-05-17T09:24:31.186Z,82.00
2023-05-17T09:27:03.701Z,78.80
2023-05-17T09:29:35.887Z,82.10
2023-05-17T09:32:25.327Z,80.80
2023-05-17T09:34:52.985Z,82.20
2023-05-17T09:37:21.191Z,79.60
2023-05-17T09:39:49.312Z,82.00
2023-05-17T09:42:17.693Z,82.10
2023-05-17T09:44:57.846Z,81.10
2023-05-17T09:47:30.021Z,77.90
2023-05-17T09:50:00.864Z,76.10
2023-05-17T09:52:35.439Z,74.20
2023-05-17T09:55:03.372Z,72.70
2023-05-17T09:57:38.246Z,73.40
2023-05-17T10:00:13.682Z,74.60
2023-05-17T10:02:47.721Z,76.60
2023-05-17T10:05:17.970Z,71.90
2023-05-17T10:07:46.894Z,72.80
2023-05-17T10:10:14.770Z,76.40
2023-05-17T10:12:42.830Z,74.90
2023-05-17T10:15:12.500Z,76.20
2023-05-17T10:17:43.948Z,76.60
2023-05-17T10:20:14.839Z,75.00
2023-05-17T10:22:43.097Z,74.30
2023-05-17T10:25:11.354Z,73.70
2023-05-17T10:27:39.737Z,69.60
2023-05-17T10:30:09.257Z,69.40
2023-05-17T10:32:36.885Z,68.60
2023-05-17T10:35:11.804Z,68.50
2023-05-17T10:37:41.598Z,72.30
2023-05-17T10:40:17.637Z,69.80
2023-05-17T10:42:51.135Z,75.10
2023-05-17T10:45:22.730Z,72.50
2023-05-17T10:47:54.106Z,75.60
2023-05-17T10:50:24.318Z,74.50
2023-05-17T10:52:56.334Z,76.80
2023-05-17T10:55:25.517Z,77.10
2023-05-17T10:58:17.361Z,78.20
2023-05-17T11:00:50.009Z,78.70
2023-05-17T11:03:19.955Z,81.90
2023-05-17T11:06:24.578Z,78.40
2023-05-17T11:09:18.876Z,76.10
2023-05-17T11:12:08.236Z,75.00
2023-05-17T11:14:48.307Z,80.40
2023-05-17T11:17:20.474Z,74.60
2023-05-17T11:20:07.576Z,75.30
2023-05-17T11:22:43.344Z,72.50
2023-05-17T11:25:13.138Z,71.20
2023-05-17T11:27:52.021Z,72.50
2023-05-17T11:30:29.546Z,69.60
2023-05-17T11:33:01.979Z,70.40
2023-05-17T11:35:33.628Z,70.20
2023-05-17T11:38:15.342Z,68.30
2023-05-17T11:40:44.285Z,70.80
2023-05-17T11:43:11.924Z,69.00
2023-05-17T11:45:53.842Z,70.90
2023-05-17T11:48:23.311Z,74.80
2023-05-17T11:50:52.655Z,74.70
2023-05-17T11:53:20.816Z,74.30
2023-05-17T11:55:53.064Z,73.20
2023-05-17T11:58:25.059Z,74.70
2023-05-17T12:00:57.947Z,76.50
2023-05-17T12:03:32.283Z,79.50
2023-05-17T12:06:10.017Z,73.00
2023-05-17T12:08:40.331Z,76.90
2023-05-17T12:11:11.315Z,77.10
2023-05-17T12:13:42.039Z,75.10
2023-05-17T12:16:15.412Z,74.80
2023-05-17T12:18:49.321Z,75.60
2023-05-17T12:21:19.297Z,78.40
2023-05-17T12:23:49.671Z,78.60
2023-05-17T12:26:21.745Z,74.40
2023-05-17T12:29:00.556Z,76.70
2023-05-17T12:31:39.754Z,77.70
2023-05-17T12:34:09.552Z,76.50
2023-05-17T12:36:37.545Z,76.30
2023-05-17T12:39:09.627Z,73.80
2023-05-17T12:41:38.881Z,79.50
2023-05-17T12:44:15.223Z,75.50
2023-05-17T12:46:44.312Z,76.30
2023-05-17T12:49:12.745Z,77.80
2023-05-17T12:51:50.329Z,77.50
2023-05-17T12:54:28.668Z,76.90
2023-05-17T12:56:57.076Z,75.70
2023-05-17T12:59:25.976Z,78.80
2023-05-17T13:01:55.990Z,76.10
2023-05-17T13:04:34.547Z,74.40
2023-05-17T13:07:04.294Z,76.00
2023-05-17T13:09:33.670Z,74.40
2023-05-17T13:12:03.255Z,75.70
2023-05-17T13:14:35.968Z,77.50
2023-05-17T13:17:11.188Z,74.20
2023-05-17T13:19:39.929Z,79.40
2023-05-17T13:22:08.212Z,75.20
2023-05-17T13:24:37.664Z,75.10
2023-05-17T13:27:06.506Z,76.40
2023-05-17T13:29:40.192Z,75.80
2023-05-17T13:32:10.200Z,78.80
2023-05-17T13:34:38.345Z,77.80
2023-05-17T13:37:09.576Z,78.70
2023-05-17T13:39:39.329Z,77.80
2023-05-17T13:42:07.122Z,76.80
2023-05-17T13:44:34.751Z,76.20
2023-05-17T13:47:02.648Z,74.20
2023-05-17T13:49:30.170Z,77.00
2023-05-17T13:51:57.873Z,78.40
2023-05-17T13:54:25.630Z,77.00
2023-05-17T13:56:55.062Z,76.50
2023-05-17T13:59:22.653Z,79.30
2023-05-17T14:01:50.426Z,79.50
2023-05-17T14:04:18.235Z,79.10
2023-05-17T14:06:48.702Z,78.70
2023-05-17T14:09:17.022Z,79.10
2023-05-17T14:11:44.683Z,79.10
2023-05-17T14:14:12.224Z,77.80
2023-05-17T14:16:39.793Z,76.80
2023-05-17T14:19:07.451Z,77.20
2023-05-17T14:21:35.102Z,81.60
2023-05-17T14:24:02.751Z,76.70
2023-05-17T14:26:30.288Z,76.80
2023-05-17T14:28:57.931Z,77.20
2023-05-17T14:31:26.336Z,76.90
2023-05-17T14:33:53.939Z,81.30
2023-05-17T14:36:21.588Z,74.00
2023-05-17T14:38:49.138Z,75.50
2023-05-17T14:41:18.654Z,76.90
2023-05-17T14:43:46.679Z,78.40
2023-05-17T14:46:15.123Z,80.90
2023-05-17T14:48:42.660Z,80.80
2023-05-17T14:51:10.228Z,79.50
2023-05-17T14:53:37.871Z,80.00
2023-05-17T14:56:05.661Z,80.10
2023-05-17T14:58:33.186Z,80.40
2023-05-17T15:01:05.260Z,81.00
2023-05-17T15:03:33.943Z,80.60
2023-05-17T15:06:03.561Z,79.80
2023-05-17T15:08:33.064Z,81.70
2023-05-17T15:11:01.105Z,80.50
2023-05-17T15:13:28.724Z,78.10
2023-05-17T15:15:56.361Z,78.90
2023-05-17T15:18:24.232Z,78.20
2023-05-17T15:20:51.904Z,78.50
2023-05-17T15:23:19.494Z,81.70
2023-05-17T15:25:47.023Z,79.40
2023-05-17T15:28:14.665Z,78.20
2023-05-17T15:30:42.324Z,80.80
2023-05-17T15:33:10.224Z,81.00
2023-05-17T15:35:41.920Z,78.30
2023-05-17T15:38:09.532Z,80.20
2023-05-17T15:40:37.081Z,78.40
2023-05-17T15:43:04.748Z,80.10
2023-05-17T15:45:33.095Z,79.10
2023-05-17T15:48:02.220Z,77.60
2023-05-17T15:50:29.966Z,78.40
2023-05-17T15:52:57.525Z,81.30
2023-05-17T15:55:25.111Z,82.20
2023-05-17T15:57:52.756Z,81.60
2023-05-17T16:00:21.161Z,82.80
2023-05-17T16:02:48.845Z,81.90
2023-05-17T16:05:16.809Z,83.10
2023-05-17T16:07:44.392Z,80.70
2023-05-17T16:10:11.954Z,77.10
2023-05-17T16:12:39.552Z,79.80
2023-05-17T16:15:07.919Z,81.30
2023-05-17T16:17:35.839Z,81.00
2023-05-17T16:20:03.813Z,80.30
2023-05-17T16:22:32.214Z,79.80
2023-05-17T16:24:59.805Z,80.70
2023-05-17T16:27:27.432Z,81.30
2023-05-17T16:29:55.018Z,84.70
2023-05-17T16:32:22.957Z,83.10
2023-05-17T16:34:50.703Z,81.10
2023-05-17T16:37:18.356Z,81.50
2023-05-17T16:39:46.056Z,80.80
2023-05-17T16:42:13.704Z,81.80
2023-05-17T16:44:41.306Z,82.10
2023-05-17T16:47:08.917Z,82.80
2023-05-17T16:49:41.225Z,84.00
2023-05-17T16:52:09.279Z,83.80
2023-05-17T16:54:36.957Z,82.90
2023-05-17T16:57:07.980Z,84.40
2023-05-17T16:59:35.941Z,83.20
2023-05-17T17:02:04.865Z,83.30
2023-05-17T17:04:32.574Z,84.50
2023-05-17T17:07:00.518Z,85.50
2023-05-17T17:09:28.367Z,85.30
2023-05-17T17:11:56.476Z,84.90
2023-05-17T17:14:24.778Z,84.30
2023-05-17T17:16:52.342Z,85.20
2023-05-17T17:19:19.887Z,87.20
2023-05-17T17:21:47.679Z,85.80
2023-05-17T17:24:15.495Z,86.20
2023-05-17T17:26:43.088Z,86.50
2023-05-17T17:29:10.793Z,88.50
2023-05-17T17:31:38.702Z,88.80
2023-05-17T17:34:06.352Z,89.10
2023-05-17T17:36:33.884Z,88.70
2023-05-17T17:39:01.469Z,88.00
2023-05-17T17:41:29.654Z,87.90
2023-05-17T17:43:57.268Z,87.50
2023-05-17T17:46:25.875Z,88.90
2023-05-17T17:48:54.466Z,89.80
2023-05-17T17:51:24.152Z,90.00
2023-05-17T17:53:53.384Z,90.40
2023-05-17T17:56:21.891Z,91.10
2023-05-17T17:58:49.397Z,91.40
2023-05-17T18:01:17.138Z,91.50
2023-05-17T18:03:44.690Z,91.30
2023-05-17T18:06:12.499Z,91.60
2023-05-17T18:08:40.113Z,91.40
2023-05-17T18:11:07.714Z,91.00
2023-05-17T18:13:35.804Z,90.50
2023-05-17T18:16:03.876Z,90.60
2023-05-17T18:18:31.454Z,90.90
2023-05-17T18:20:59.088Z,92.00
2023-05-17T18:23:26.677Z,91.70
2023-05-17T18:25:54.291Z,92.10
2023-05-17T18:28:30.083Z,92.30
2023-05-17T18:31:08.730Z,92.10
2023-05-17T18:33:36.256Z,92.30
2023-05-17T18:36:03.964Z,92.40
2023-05-17T18:38:31.663Z,92.80
2023-05-17T18:40:59.225Z,92.70
2023-05-17T18:43:28.301Z,92.50
2023-05-17T18:45:56.248Z,93.00
2023-05-17T18:48:24.788Z,93.40
2023-05-17T18:50:52.360Z,93.30
2023-05-17T18:53:19.957Z,93.90
2023-05-17T18:55:47.496Z,94.00
2023-05-17T18:58:15.066Z,94.50
2023-05-17T19:00:42.679Z,94.70
2023-05-17T19:03:10.301Z,94.20
2023-05-17T19:05:37.895Z,94.70
2023-05-17T19:08:05.735Z,95.30
2023-05-17T19:10:33.290Z,95.60
2023-05-17T19:13:00.962Z,95.10
2023-05-17T19:15:28.946Z,95.40
2023-05-17T19:17:56.781Z,95.50
2023-05-17T19:20:24.819Z,95.40
2023-05-17T19:22:52.491Z,95.80
2023-05-17T19:25:21.062Z,96.20
2023-05-17T19:27:48.799Z,96.00
2023-05-17T19:30:16.438Z,95.90
2023-05-17T19:32:44.143Z,96.80
2023-05-17T19:35:11.844Z,97.10
2023-05-17T19:37:39.439Z,97.60
2023-05-17T19:40:07.644Z,98.60
2023-05-17T19:42:35.295Z,98.30
2023-05-17T19:45:03.153Z,98.20
2023-05-17T19:47:30.742Z,98.60
2023-05-17T19:49:58.357Z,99.20
2023-05-17T19:52:25.945Z,99.80
2023-05-17T19:54:53.484Z,99.60
2023-05-17T19:57:21.019Z,99.90
2023-05-17T19:59:51.417Z,99.90
2023-05-17T20:02:19.932Z,99.90
2023-05-17T20:04:48.416Z,99.90
2023-05-17T20:07:17.399Z,99.90
2023-05-17T20:09:44.988Z,99.90
2023-05-17T20:12:12.555Z,99.90
2023-05-17T20:14:40.148Z,99.90
2023-05-17T20:17:07.793Z,99.90
2023-05-17T20:19:35.337Z,99.90
2023-05-17T20:22:02.971Z,99.90
2023-05-17T20:24:30.605Z,99.90
2023-05-17T20:26:58.121Z,99.90
2023-05-17T20:29:25.848Z,99.90
2023-05-17T20:31:53.481Z,99.90
2023-05-17T20:34:21.638Z,99.90
2023-05-17T20:36:49.176Z,99.90
2023-05-17T20:39:16.805Z,99.90
2023-05-17T20:41:44.446Z,99.90
2023-05-17T20:44:12.923Z,99.90
2023-05-17T20:46:40.433Z,99.90
2023-05-17T20:49:09.946Z,99.90
2023-05-17T20:51:37.796Z,99.90
2023-05-17T20:54:06.425Z,99.90
2023-05-17T20:56:35.177Z,99.90
2023-05-17T20:59:04.068Z,99.90
2023-05-17T21:01:32.246Z,99.90
2023-05-17T21:04:00.685Z,99.90
2023-05-17T21:06:30.329Z,99.90
2023-05-17T21:09:02.637Z,99.90
2023-05-17T21:11:30.542Z,99.90
2023-05-17T21:14:01.225Z,99.90
2023-05-17T21:16:28.908Z,99.90
2023-05-17T21:18:56.415Z,99.90
2023-05-17T21:21:24.046Z,99.90
2023-05-17T21:23:51.714Z,99.90
2023-05-17T21:26:19.260Z,99.90
2023-05-17T21:28:46.928Z,99.90
2023-05-17T21:31:15.718Z,99.90
2023-05-17T21:33:43.298Z,99.90
2023-05-17T21:36:10.995Z,99.90
2023-05-17T21:38:38.484Z,99.90
2023-05-17T21:41:06.292Z,99.90
2023-05-17T21:43:33.869Z,99.90
2023-05-17T21:46:01.442Z,99.90
2023-05-17T21:48:29.052Z,99.90
2023-05-17T21:50:56.952Z,99.90
2023-05-17T21:53:24.689Z,99.90
2023-05-17T21:58:24.338Z,99.90
2023-05-17T22:00:52.202Z,99.90
2023-05-17T22:03:19.975Z,99.90
2023-05-17T22:05:48.397Z,99.90
2023-05-17T22:08:16.215Z,99.90
2023-05-17T22:10:44.052Z,99.90
2023-05-17T22:13:12.846Z,99.90
2023-05-17T22:15:41.716Z,99.90
2023-05-17T22:18:12.436Z,99.90
2023-05-17T22:20:40.237Z,99.90
2023-05-17T22:23:07.837Z,99.90
2023-05-17T22:25:36.171Z,99.90
2023-05-17T22:28:04.110Z,99.90
2023-05-17T22:30:32.052Z,99.90
2023-05-17T22:33:01.223Z,99.90
2023-05-17T22:35:28.923Z,99.90
2023-05-17T22:37:56.551Z,99.90
2023-05-17T22:40:24.205Z,99.90
2023-05-17T22:42:52.131Z,99.90
2023-05-17T22:45:19.759Z,99.90
2023-05-17T22:47:47.679Z,99.90
2023-05-17T22:50:15.934Z,99.90
2023-05-17T22:52:43.675Z,99.90
2023-05-17T22:55:11.475Z,99.90
2023-05-17T22:57:39.212Z,99.90
2023-05-17T23:00:09.342Z,99.90
2023-05-17T23:02:36.959Z,99.90
2023-05-17T23:05:05.224Z,99.90
2023-05-17T23:07:37.240Z,99.90
2023-05-17T23:10:08.757Z,99.90
2023-05-17T23:12:37.410Z,99.90
2023-05-17T23:15:06.551Z,99.90
2023-05-17T23:17:35.684Z,99.90
2023-05-17T23:20:08.614Z,99.90
2023-05-17T23:22:39.801Z,99.90
2023-05-17T23:25:07.771Z,99.90
2023-05-17T23:27:36.072Z,99.90
2023-05-17T23:30:04.820Z,99.90
2023-05-17T23:32:32.920Z,99.90
2023-05-17T23:35:06.338Z,99.90
2023-05-17T23:37:34.743Z,99.90
2023-05-17T23:40:04.889Z,99.90
2023-05-17T23:42:32.836Z,99.90
2023-05-17T23:45:00.935Z,99.90
2023-05-17T23:47:28.953Z,99.90
2023-05-17T23:49:57.111Z,99.90
2023-05-17T23:52:24.792Z,99.90
2023-05-17T23:54:57.761Z,99.90
2023-05-17T23:57:25.452Z,99.90
2023-05-17T23:59:53.094Z,99.90
